sensor_id;sensor_type;location;lat;lon;timestamp;P1;durP1;ratioP1;P2;durP2;ratioP2
17598;SDS011;8918;52.092;5.232;2023-02-08T00:01:11;20.20;;;12.97;;
17598;SDS011;8918;52.092;5.232;2023-02-08T00:03:38;23.33;;;13.57;;
17598;SDS011;8918;52.092;5.232;2023-02-08T00:06:07;19.47;;;13.00;;
17598;SDS011;8918;52.092;5.232;2023-02-08T00:08:33;22.57;;;13.67;;
17598;SDS011;8918;52.092;5.232;2023-02-08T00:10:59;21.20;;;12.73;;
17598;SDS011;8918;52.092;5.232;2023-02-08T00:13:25;22.80;;;13.17;;
17598;SDS011;8918;52.092;5.232;2023-02-08T00:15:51;21.13;;;12.77;;
17598;SDS011;8918;52.092;5.232;2023-02-08T00:18:18;21.27;;;12.93;;
17598;SDS011;8918;52.092;5.232;2023-02-08T00:20:44;19.80;;;12.63;;
17598;SDS011;8918;52.092;5.232;2023-02-08T00:23:11;18.53;;;12.13;;
17598;SDS011;8918;52.092;5.232;2023-02-08T00:25:37;22.10;;;13.43;;
17598;SDS011;8918;52.092;5.232;2023-02-08T00:28:03;21.97;;;12.77;;
17598;SDS011;8918;52.092;5.232;2023-02-08T00:30:30;21.37;;;13.17;;
17598;SDS011;8918;52.092;5.232;2023-02-08T00:32:56;21.20;;;12.53;;
17598;SDS011;8918;52.092;5.232;2023-02-08T00:35:23;18.50;;;12.27;;
17598;SDS011;8918;52.092;5.232;2023-02-08T00:37:48;19.90;;;13.00;;
17598;SDS011;8918;52.092;5.232;2023-02-08T00:40:14;20.30;;;13.17;;
17598;SDS011;8918;52.092;5.232;2023-02-08T00:42:40;19.47;;;12.37;;
17598;SDS011;8918;52.092;5.232;2023-02-08T00:45:05;20.00;;;13.10;;
17598;SDS011;8918;52.092;5.232;2023-02-08T00:47:31;21.70;;;13.37;;
17598;SDS011;8918;52.092;5.232;2023-02-08T00:49:57;19.60;;;12.27;;
17598;SDS011;8918;52.092;5.232;2023-02-08T00:52:22;21.67;;;13.40;;
17598;SDS011;8918;52.092;5.232;2023-02-08T00:54:49;23.53;;;13.30;;
17598;SDS011;8918;52.092;5.232;2023-02-08T00:57:15;19.97;;;12.33;;
17598;SDS011;8918;52.092;5.232;2023-02-08T00:59:40;19.03;;;12.37;;
17598;SDS011;8918;52.092;5.232;2023-02-08T01:02:06;18.83;;;12.77;;
17598;SDS011;8918;52.092;5.232;2023-02-08T01:04:32;22.03;;;12.70;;
17598;SDS011;8918;52.092;5.232;2023-02-08T01:06:57;21.30;;;13.27;;
17598;SDS011;8918;52.092;5.232;2023-02-08T01:09:23;21.97;;;13.93;;
17598;SDS011;8918;52.092;5.232;2023-02-08T01:11:49;21.73;;;12.90;;
17598;SDS011;8918;52.092;5.232;2023-02-08T01:14:14;21.73;;;13.47;;
17598;SDS011;8918;52.092;5.232;2023-02-08T01:16:40;23.10;;;14.07;;
17598;SDS011;8918;52.092;5.232;2023-02-08T01:19:06;23.27;;;13.50;;
17598;SDS011;8918;52.092;5.232;2023-02-08T01:21:33;21.47;;;12.73;;
17598;SDS011;8918;52.092;5.232;2023-02-08T01:24:01;21.77;;;13.20;;
17598;SDS011;8918;52.092;5.232;2023-02-08T01:26:28;21.13;;;12.70;;
17598;SDS011;8918;52.092;5.232;2023-02-08T01:28:54;19.30;;;12.47;;
17598;SDS011;8918;52.092;5.232;2023-02-08T01:31:24;21.27;;;12.47;;
17598;SDS011;8918;52.092;5.232;2023-02-08T01:33:53;18.73;;;13.00;;
17598;SDS011;8918;52.092;5.232;2023-02-08T01:36:19;24.57;;;14.10;;
17598;SDS011;8918;52.092;5.232;2023-02-08T01:38:45;24.30;;;13.50;;
17598;SDS011;8918;52.092;5.232;2023-02-08T01:41:18;22.37;;;13.60;;
17598;SDS011;8918;52.092;5.232;2023-02-08T01:46:30;21.40;;;14.20;;
17598;SDS011;8918;52.092;5.232;2023-02-08T01:49:22;20.10;;;12.57;;
17598;SDS011;8918;52.092;5.232;2023-02-08T01:51:53;20.00;;;13.17;;
17598;SDS011;8918;52.092;5.232;2023-02-08T01:54:30;23.13;;;13.50;;
17598;SDS011;8918;52.092;5.232;2023-02-08T01:57:01;20.40;;;13.07;;
17598;SDS011;8918;52.092;5.232;2023-02-08T01:59:34;21.03;;;13.80;;
17598;SDS011;8918;52.092;5.232;2023-02-08T02:02:21;21.57;;;13.43;;
17598;SDS011;8918;52.092;5.232;2023-02-08T02:04:48;20.63;;;12.97;;
17598;SDS011;8918;52.092;5.232;2023-02-08T02:07:15;20.80;;;13.13;;
17598;SDS011;8918;52.092;5.232;2023-02-08T02:09:47;19.27;;;12.30;;
17598;SDS011;8918;52.092;5.232;2023-02-08T02:12:14;19.47;;;13.27;;
17598;SDS011;8918;52.092;5.232;2023-02-08T02:14:41;20.57;;;13.40;;
17598;SDS011;8918;52.092;5.232;2023-02-08T02:17:09;20.53;;;13.37;;
17598;SDS011;8918;52.092;5.232;2023-02-08T02:25:19;22.97;;;12.90;;
17598;SDS011;8918;52.092;5.232;2023-02-08T02:28:17;20.70;;;12.73;;
17598;SDS011;8918;52.092;5.232;2023-02-08T02:34:01;23.30;;;14.40;;
17598;SDS011;8918;52.092;5.232;2023-02-08T02:39:33;19.83;;;12.53;;
17598;SDS011;8918;52.092;5.232;2023-02-08T02:47:38;21.47;;;12.63;;
17598;SDS011;8918;52.092;5.232;2023-02-08T02:50:30;19.87;;;12.73;;
17598;SDS011;8918;52.092;5.232;2023-02-08T02:53:05;18.70;;;12.37;;
17598;SDS011;8918;52.092;5.232;2023-02-08T02:55:39;20.87;;;13.27;;
17598;SDS011;8918;52.092;5.232;2023-02-08T02:58:12;21.50;;;13.13;;
17598;SDS011;8918;52.092;5.232;2023-02-08T03:00:41;20.53;;;13.13;;
17598;SDS011;8918;52.092;5.232;2023-02-08T03:03:12;21.63;;;13.40;;
17598;SDS011;8918;52.092;5.232;2023-02-08T03:05:45;21.97;;;13.37;;
17598;SDS011;8918;52.092;5.232;2023-02-08T03:08:14;19.97;;;12.87;;
17598;SDS011;8918;52.092;5.232;2023-02-08T03:10:57;19.10;;;12.57;;
17598;SDS011;8918;52.092;5.232;2023-02-08T03:16:29;21.80;;;12.90;;
17598;SDS011;8918;52.092;5.232;2023-02-08T03:19:09;24.00;;;13.03;;
17598;SDS011;8918;52.092;5.232;2023-02-08T03:22:04;17.67;;;12.07;;
17598;SDS011;8918;52.092;5.232;2023-02-08T03:27:10;19.43;;;12.77;;
17598;SDS011;8918;52.092;5.232;2023-02-08T03:29:46;18.90;;;12.43;;
17598;SDS011;8918;52.092;5.232;2023-02-08T03:32:17;20.20;;;12.73;;
17598;SDS011;8918;52.092;5.232;2023-02-08T03:34:50;21.80;;;13.63;;
17598;SDS011;8918;52.092;5.232;2023-02-08T03:37:36;17.50;;;12.17;;
17598;SDS011;8918;52.092;5.232;2023-02-08T03:40:20;21.40;;;13.30;;
17598;SDS011;8918;52.092;5.232;2023-02-08T03:42:49;20.73;;;12.53;;
17598;SDS011;8918;52.092;5.232;2023-02-08T03:45:22;22.47;;;13.30;;
17598;SDS011;8918;52.092;5.232;2023-02-08T03:47:52;19.90;;;12.17;;
17598;SDS011;8918;52.092;5.232;2023-02-08T03:50:20;20.37;;;12.83;;
17598;SDS011;8918;52.092;5.232;2023-02-08T03:52:47;18.57;;;12.37;;
17598;SDS011;8918;52.092;5.232;2023-02-08T03:55:23;19.60;;;12.67;;
17598;SDS011;8918;52.092;5.232;2023-02-08T03:57:55;19.50;;;12.67;;
17598;SDS011;8918;52.092;5.232;2023-02-08T04:00:31;17.63;;;11.63;;
17598;SDS011;8918;52.092;5.232;2023-02-08T04:03:04;22.13;;;12.30;;
17598;SDS011;8918;52.092;5.232;2023-02-08T04:05:37;20.43;;;13.10;;
17598;SDS011;8918;52.092;5.232;2023-02-08T04:08:03;27.03;;;13.77;;
17598;SDS011;8918;52.092;5.232;2023-02-08T04:10:29;20.67;;;13.33;;
17598;SDS011;8918;52.092;5.232;2023-02-08T04:12:54;20.20;;;13.17;;
17598;SDS011;8918;52.092;5.232;2023-02-08T04:15:20;19.03;;;12.73;;
17598;SDS011;8918;52.092;5.232;2023-02-08T04:17:46;20.30;;;13.43;;
17598;SDS011;8918;52.092;5.232;2023-02-08T04:20:11;23.93;;;13.70;;
17598;SDS011;8918;52.092;5.232;2023-02-08T04:22:37;20.63;;;13.73;;
17598;SDS011;8918;52.092;5.232;2023-02-08T04:25:03;20.47;;;13.07;;
17598;SDS011;8918;52.092;5.232;2023-02-08T04:27:29;20.70;;;13.17;;
17598;SDS011;8918;52.092;5.232;2023-02-08T04:29:55;23.63;;;13.30;;
17598;SDS011;8918;52.092;5.232;2023-02-08T04:32:20;20.70;;;13.37;;
17598;SDS011;8918;52.092;5.232;2023-02-08T04:34:46;20.50;;;13.63;;
17598;SDS011;8918;52.092;5.232;2023-02-08T04:37:12;23.27;;;14.07;;
17598;SDS011;8918;52.092;5.232;2023-02-08T04:39:37;21.13;;;12.77;;
17598;SDS011;8918;52.092;5.232;2023-02-08T04:42:03;19.13;;;13.53;;
17598;SDS011;8918;52.092;5.232;2023-02-08T04:44:28;20.87;;;13.23;;
17598;SDS011;8918;52.092;5.232;2023-02-08T04:46:56;21.20;;;13.70;;
17598;SDS011;8918;52.092;5.232;2023-02-08T04:49:23;18.93;;;12.97;;
17598;SDS011;8918;52.092;5.232;2023-02-08T04:51:49;21.07;;;13.60;;
17598;SDS011;8918;52.092;5.232;2023-02-08T04:54:14;23.50;;;14.13;;
17598;SDS011;8918;52.092;5.232;2023-02-08T04:56:40;22.33;;;13.73;;
17598;SDS011;8918;52.092;5.232;2023-02-08T04:59:05;22.37;;;13.83;;
17598;SDS011;8918;52.092;5.232;2023-02-08T05:01:31;23.37;;;14.67;;
17598;SDS011;8918;52.092;5.232;2023-02-08T05:03:57;22.27;;;14.20;;
17598;SDS011;8918;52.092;5.232;2023-02-08T05:06:25;22.63;;;14.23;;
17598;SDS011;8918;52.092;5.232;2023-02-08T05:08:51;22.07;;;14.40;;
17598;SDS011;8918;52.092;5.232;2023-02-08T05:11:20;21.13;;;13.33;;
17598;SDS011;8918;52.092;5.232;2023-02-08T05:13:47;23.47;;;13.80;;
17598;SDS011;8918;52.092;5.232;2023-02-08T05:16:13;23.23;;;14.07;;
17598;SDS011;8918;52.092;5.232;2023-02-08T05:18:39;23.00;;;14.23;;
17598;SDS011;8918;52.092;5.232;2023-02-08T05:21:05;23.63;;;14.37;;
17598;SDS011;8918;52.092;5.232;2023-02-08T05:23:31;23.57;;;14.27;;
17598;SDS011;8918;52.092;5.232;2023-02-08T05:25:57;22.67;;;13.97;;
17598;SDS011;8918;52.092;5.232;2023-02-08T05:28:23;22.13;;;14.37;;
17598;SDS011;8918;52.092;5.232;2023-02-08T05:30:49;22.13;;;14.37;;
17598;SDS011;8918;52.092;5.232;2023-02-08T05:33:15;21.43;;;13.90;;
17598;SDS011;8918;52.092;5.232;2023-02-08T05:35:41;23.83;;;14.10;;
17598;SDS011;8918;52.092;5.232;2023-02-08T05:38:08;20.47;;;13.30;;
17598;SDS011;8918;52.092;5.232;2023-02-08T05:40:34;25.73;;;14.90;;
17598;SDS011;8918;52.092;5.232;2023-02-08T05:42:59;21.60;;;13.27;;
17598;SDS011;8918;52.092;5.232;2023-02-08T05:45:25;24.10;;;14.27;;
17598;SDS011;8918;52.092;5.232;2023-02-08T05:47:51;21.33;;;13.53;;
17598;SDS011;8918;52.092;5.232;2023-02-08T05:50:16;20.97;;;13.50;;
17598;SDS011;8918;52.092;5.232;2023-02-08T05:52:42;20.03;;;13.80;;
17598;SDS011;8918;52.092;5.232;2023-02-08T05:55:08;20.93;;;13.43;;
17598;SDS011;8918;52.092;5.232;2023-02-08T05:57:33;23.27;;;14.30;;
17598;SDS011;8918;52.092;5.232;2023-02-08T05:59:59;20.93;;;13.40;;
17598;SDS011;8918;52.092;5.232;2023-02-08T06:02:24;22.50;;;14.20;;
17598;SDS011;8918;52.092;5.232;2023-02-08T06:04:50;20.23;;;13.87;;
17598;SDS011;8918;52.092;5.232;2023-02-08T06:07:16;22.70;;;14.43;;
17598;SDS011;8918;52.092;5.232;2023-02-08T06:09:41;21.60;;;13.93;;
17598;SDS011;8918;52.092;5.232;2023-02-08T06:12:07;22.00;;;13.57;;
17598;SDS011;8918;52.092;5.232;2023-02-08T06:14:33;19.83;;;13.47;;
17598;SDS011;8918;52.092;5.232;2023-02-08T06:16:58;20.60;;;13.63;;
17598;SDS011;8918;52.092;5.232;2023-02-08T06:19:24;23.27;;;14.17;;
17598;SDS011;8918;52.092;5.232;2023-02-08T06:21:49;20.03;;;13.17;;
17598;SDS011;8918;52.092;5.232;2023-02-08T06:24:15;23.17;;;14.20;;
17598;SDS011;8918;52.092;5.232;2023-02-08T06:26:41;19.37;;;12.93;;
17598;SDS011;8918;52.092;5.232;2023-02-08T06:29:07;19.93;;;14.03;;
17598;SDS011;8918;52.092;5.232;2023-02-08T06:31:33;25.33;;;13.63;;
17598;SDS011;8918;52.092;5.232;2023-02-08T06:33:59;21.97;;;13.57;;
17598;SDS011;8918;52.092;5.232;2023-02-08T06:36:24;21.97;;;13.20;;
17598;SDS011;8918;52.092;5.232;2023-02-08T06:38:50;21.93;;;13.03;;
17598;SDS011;8918;52.092;5.232;2023-02-08T06:41:16;21.17;;;13.80;;
17598;SDS011;8918;52.092;5.232;2023-02-08T06:43:41;21.53;;;13.50;;
17598;SDS011;8918;52.092;5.232;2023-02-08T06:46:07;21.80;;;13.43;;
17598;SDS011;8918;52.092;5.232;2023-02-08T06:48:33;21.90;;;13.80;;
17598;SDS011;8918;52.092;5.232;2023-02-08T06:50:59;21.70;;;13.50;;
17598;SDS011;8918;52.092;5.232;2023-02-08T06:53:25;22.40;;;14.13;;
17598;SDS011;8918;52.092;5.232;2023-02-08T06:55:50;22.53;;;14.17;;
17598;SDS011;8918;52.092;5.232;2023-02-08T06:58:17;22.30;;;14.13;;
17598;SDS011;8918;52.092;5.232;2023-02-08T07:00:43;24.07;;;14.53;;
17598;SDS011;8918;52.092;5.232;2023-02-08T07:03:12;20.63;;;13.97;;
17598;SDS011;8918;52.092;5.232;2023-02-08T07:05:38;28.53;;;16.97;;
17598;SDS011;8918;52.092;5.232;2023-02-08T07:08:05;27.57;;;16.70;;
17598;SDS011;8918;52.092;5.232;2023-02-08T07:10:31;22.20;;;15.27;;
17598;SDS011;8918;52.092;5.232;2023-02-08T07:12:57;24.07;;;14.80;;
17598;SDS011;8918;52.092;5.232;2023-02-08T07:15:23;24.70;;;15.03;;
17598;SDS011;8918;52.092;5.232;2023-02-08T07:17:49;25.17;;;14.60;;
17598;SDS011;8918;52.092;5.232;2023-02-08T07:20:15;23.93;;;14.53;;
17598;SDS011;8918;52.092;5.232;2023-02-08T07:22:40;24.50;;;14.70;;
17598;SDS011;8918;52.092;5.232;2023-02-08T07:25:07;18.57;;;13.23;;
17598;SDS011;8918;52.092;5.232;2023-02-08T07:27:33;21.57;;;14.40;;
17598;SDS011;8918;52.092;5.232;2023-02-08T07:29:59;21.63;;;13.77;;
17598;SDS011;8918;52.092;5.232;2023-02-08T07:32:25;26.03;;;14.83;;
17598;SDS011;8918;52.092;5.232;2023-02-08T07:34:50;21.07;;;13.73;;
17598;SDS011;8918;52.092;5.232;2023-02-08T07:37:16;21.53;;;13.07;;
17598;SDS011;8918;52.092;5.232;2023-02-08T07:39:42;22.43;;;13.60;;
17598;SDS011;8918;52.092;5.232;2023-02-08T07:42:08;22.47;;;14.13;;
17598;SDS011;8918;52.092;5.232;2023-02-08T07:44:35;23.33;;;14.10;;
17598;SDS011;8918;52.092;5.232;2023-02-08T07:47:02;23.23;;;14.10;;
17598;SDS011;8918;52.092;5.232;2023-02-08T07:49:28;22.97;;;13.30;;
17598;SDS011;8918;52.092;5.232;2023-02-08T07:51:54;19.93;;;12.80;;
17598;SDS011;8918;52.092;5.232;2023-02-08T07:54:20;21.70;;;14.00;;
17598;SDS011;8918;52.092;5.232;2023-02-08T07:56:45;21.80;;;13.53;;
17598;SDS011;8918;52.092;5.232;2023-02-08T07:59:11;21.33;;;12.80;;
17598;SDS011;8918;52.092;5.232;2023-02-08T08:01:38;18.07;;;12.10;;
17598;SDS011;8918;52.092;5.232;2023-02-08T08:04:04;18.17;;;11.87;;
17598;SDS011;8918;52.092;5.232;2023-02-08T08:06:29;21.67;;;12.87;;
17598;SDS011;8918;52.092;5.232;2023-02-08T08:08:55;23.20;;;12.83;;
17598;SDS011;8918;52.092;5.232;2023-02-08T08:11:21;20.17;;;12.70;;
17598;SDS011;8918;52.092;5.232;2023-02-08T08:13:46;21.17;;;11.97;;
17598;SDS011;8918;52.092;5.232;2023-02-08T08:16:12;18.63;;;12.70;;
17598;SDS011;8918;52.092;5.232;2023-02-08T08:18:38;18.20;;;12.57;;
17598;SDS011;8918;52.092;5.232;2023-02-08T08:21:07;18.43;;;11.90;;
17598;SDS011;8918;52.092;5.232;2023-02-08T08:23:32;22.07;;;12.67;;
17598;SDS011;8918;52.092;5.232;2023-02-08T08:26:04;16.90;;;11.53;;
17598;SDS011;8918;52.092;5.232;2023-02-08T08:28:34;21.10;;;13.13;;
17598;SDS011;8918;52.092;5.232;2023-02-08T08:31:00;18.53;;;11.67;;
17598;SDS011;8918;52.092;5.232;2023-02-08T08:33:26;21.30;;;12.30;;
17598;SDS011;8918;52.092;5.232;2023-02-08T08:35:51;20.30;;;11.90;;
17598;SDS011;8918;52.092;5.232;2023-02-08T08:38:17;18.27;;;12.40;;
17598;SDS011;8918;52.092;5.232;2023-02-08T08:40:42;19.13;;;12.57;;
17598;SDS011;8918;52.092;5.232;2023-02-08T08:43:08;18.67;;;11.90;;
17598;SDS011;8918;52.092;5.232;2023-02-08T08:45:34;19.60;;;12.23;;
17598;SDS011;8918;52.092;5.232;2023-02-08T08:48:00;20.07;;;11.27;;
17598;SDS011;8918;52.092;5.232;2023-02-08T08:50:27;19.50;;;11.67;;
17598;SDS011;8918;52.092;5.232;2023-02-08T08:52:53;17.23;;;11.37;;
17598;SDS011;8918;52.092;5.232;2023-02-08T08:55:19;19.33;;;11.23;;
17598;SDS011;8918;52.092;5.232;2023-02-08T08:57:44;15.33;;;10.83;;
17598;SDS011;8918;52.092;5.232;2023-02-08T09:00:10;19.97;;;10.93;;
17598;SDS011;8918;52.092;5.232;2023-02-08T09:02:36;18.60;;;11.93;;
17598;SDS011;8918;52.092;5.232;2023-02-08T09:05:02;18.17;;;11.43;;
17598;SDS011;8918;52.092;5.232;2023-02-08T09:07:30;18.40;;;11.30;;
17598;SDS011;8918;52.092;5.232;2023-02-08T09:09:56;19.23;;;10.93;;
17598;SDS011;8918;52.092;5.232;2023-02-08T09:12:25;17.57;;;10.93;;
17598;SDS011;8918;52.092;5.232;2023-02-08T09:14:50;17.07;;;11.03;;
17598;SDS011;8918;52.092;5.232;2023-02-08T09:17:16;19.60;;;10.67;;
17598;SDS011;8918;52.092;5.232;2023-02-08T09:19:42;17.23;;;11.53;;
17598;SDS011;8918;52.092;5.232;2023-02-08T09:22:07;17.43;;;11.43;;
17598;SDS011;8918;52.092;5.232;2023-02-08T09:24:33;20.03;;;11.23;;
17598;SDS011;8918;52.092;5.232;2023-02-08T09:26:59;19.50;;;11.27;;
17598;SDS011;8918;52.092;5.232;2023-02-08T09:29:24;16.13;;;10.13;;
17598;SDS011;8918;52.092;5.232;2023-02-08T09:31:53;17.00;;;11.20;;
17598;SDS011;8918;52.092;5.232;2023-02-08T09:34:19;17.17;;;10.93;;
17598;SDS011;8918;52.092;5.232;2023-02-08T09:36:44;19.53;;;11.33;;
17598;SDS011;8918;52.092;5.232;2023-02-08T09:39:14;15.83;;;10.03;;
17598;SDS011;8918;52.092;5.232;2023-02-08T09:42:01;15.13;;;10.13;;
17598;SDS011;8918;52.092;5.232;2023-02-08T09:47:36;17.93;;;10.57;;
17598;SDS011;8918;52.092;5.232;2023-02-08T09:55:20;16.93;;;10.33;;
17598;SDS011;8918;52.092;5.232;2023-02-08T09:57:53;14.30;;;9.60;;
17598;SDS011;8918;52.092;5.232;2023-02-08T10:00:28;13.53;;;9.67;;
17598;SDS011;8918;52.092;5.232;2023-02-08T10:03:00;18.23;;;10.23;;
17598;SDS011;8918;52.092;5.232;2023-02-08T10:05:26;13.60;;;9.20;;
17598;SDS011;8918;52.092;5.232;2023-02-08T10:07:53;14.07;;;9.50;;
17598;SDS011;8918;52.092;5.232;2023-02-08T10:10:23;12.63;;;8.80;;
17598;SDS011;8918;52.092;5.232;2023-02-08T10:13:02;14.20;;;9.17;;
17598;SDS011;8918;52.092;5.232;2023-02-08T10:15:57;14.53;;;9.20;;
17598;SDS011;8918;52.092;5.232;2023-02-08T10:18:35;13.63;;;9.00;;
17598;SDS011;8918;52.092;5.232;2023-02-08T10:21:28;14.87;;;8.27;;
17598;SDS011;8918;52.092;5.232;2023-02-08T10:29:47;12.67;;;8.50;;
17598;SDS011;8918;52.092;5.232;2023-02-08T10:35:27;12.37;;;8.60;;
17598;SDS011;8918;52.092;5.232;2023-02-08T10:38:02;14.23;;;8.63;;
17598;SDS011;8918;52.092;5.232;2023-02-08T10:40:42;15.80;;;9.33;;
17598;SDS011;8918;52.092;5.232;2023-02-08T10:43:23;11.27;;;8.20;;
17598;SDS011;8918;52.092;5.232;2023-02-08T10:48:47;13.10;;;8.80;;
17598;SDS011;8918;52.092;5.232;2023-02-08T10:51:35;11.57;;;8.30;;
17598;SDS011;8918;52.092;5.232;2023-02-08T10:54:01;12.30;;;8.77;;
17598;SDS011;8918;52.092;5.232;2023-02-08T10:59:16;12.63;;;9.10;;
17598;SDS011;8918;52.092;5.232;2023-02-08T11:01:45;15.23;;;9.27;;
17598;SDS011;8918;52.092;5.232;2023-02-08T11:04:13;12.40;;;8.63;;
17598;SDS011;8918;52.092;5.232;2023-02-08T11:06:42;10.77;;;8.20;;
17598;SDS011;8918;52.092;5.232;2023-02-08T11:09:28;12.83;;;8.43;;
17598;SDS011;8918;52.092;5.232;2023-02-08T11:11:55;11.10;;;8.37;;
17598;SDS011;8918;52.092;5.232;2023-02-08T11:14:25;13.93;;;8.13;;
17598;SDS011;8918;52.092;5.232;2023-02-08T11:16:56;13.60;;;7.97;;
17598;SDS011;8918;52.092;5.232;2023-02-08T11:19:37;14.37;;;8.93;;
17598;SDS011;8918;52.092;5.232;2023-02-08T11:22:13;11.73;;;8.57;;
17598;SDS011;8918;52.092;5.232;2023-02-08T11:24:40;11.13;;;8.70;;
17598;SDS011;8918;52.092;5.232;2023-02-08T11:27:17;11.30;;;8.70;;
17598;SDS011;8918;52.092;5.232;2023-02-08T11:32:37;12.23;;;9.03;;
17598;SDS011;8918;52.092;5.232;2023-02-08T11:35:25;12.00;;;9.10;;
17598;SDS011;8918;52.092;5.232;2023-02-08T11:37:56;11.47;;;9.03;;
17598;SDS011;8918;52.092;5.232;2023-02-08T11:40:24;14.57;;;9.80;;
17598;SDS011;8918;52.092;5.232;2023-02-08T11:42:55;12.07;;;9.27;;
17598;SDS011;8918;52.092;5.232;2023-02-08T11:45:24;12.70;;;9.63;;
17598;SDS011;8918;52.092;5.232;2023-02-08T11:47:54;14.23;;;10.13;;
17598;SDS011;8918;52.092;5.232;2023-02-08T11:50:22;13.40;;;9.82;;
17598;SDS011;8918;52.092;5.232;2023-02-08T11:52:50;13.65;;;9.93;;
17598;SDS011;8918;52.092;5.232;2023-02-08T11:55:23;13.93;;;10.23;;
17598;SDS011;8918;52.092;5.232;2023-02-08T12:00:42;11.95;;;9.60;;
17598;SDS011;8918;52.092;5.232;2023-02-08T12:03:41;12.88;;;9.88;;
17598;SDS011;8918;52.092;5.232;2023-02-08T12:14:31;12.55;;;9.40;;
17598;SDS011;8918;52.092;5.232;2023-02-08T12:26:26;12.20;;;9.82;;
17598;SDS011;8918;52.092;5.232;2023-02-08T12:29:14;11.27;;;9.27;;
17598;SDS011;8918;52.092;5.232;2023-02-08T12:35:01;11.25;;;9.05;;
17598;SDS011;8918;52.092;5.232;2023-02-08T12:41:11;10.90;;;9.43;;
17598;SDS011;8918;52.092;5.232;2023-02-08T12:46:12;13.50;;;10.15;;
17598;SDS011;8918;52.092;5.232;2023-02-08T12:49:07;10.35;;;8.73;;
17598;SDS011;8918;52.092;5.232;2023-02-08T12:54:49;12.55;;;10.02;;
17598;SDS011;8918;52.092;5.232;2023-02-08T12:57:29;11.55;;;9.25;;
17598;SDS011;8918;52.092;5.232;2023-02-08T13:02:39;11.52;;;8.82;;
17598;SDS011;8918;52.092;5.232;2023-02-08T13:05:14;10.43;;;8.50;;
17598;SDS011;8918;52.092;5.232;2023-02-08T13:07:43;11.17;;;7.73;;
17598;SDS011;8918;52.092;5.232;2023-02-08T13:10:19;13.27;;;8.43;;
17598;SDS011;8918;52.092;5.232;2023-02-08T13:12:51;11.73;;;8.50;;
17598;SDS011;8918;52.092;5.232;2023-02-08T13:15:35;10.23;;;7.93;;
17598;SDS011;8918;52.092;5.232;2023-02-08T13:18:17;8.90;;;7.30;;
17598;SDS011;8918;52.092;5.232;2023-02-08T13:20:55;12.23;;;8.07;;
17598;SDS011;8918;52.092;5.232;2023-02-08T13:25:56;11.73;;;7.73;;
17598;SDS011;8918;52.092;5.232;2023-02-08T13:28:29;12.47;;;8.27;;
17598;SDS011;8918;52.092;5.232;2023-02-08T13:31:06;10.77;;;8.03;;
17598;SDS011;8918;52.092;5.232;2023-02-08T13:33:41;11.53;;;8.13;;
17598;SDS011;8918;52.092;5.232;2023-02-08T13:36:48;10.70;;;8.18;;
17598;SDS011;8918;52.092;5.232;2023-02-08T13:44:58;12.30;;;8.30;;
17598;SDS011;8918;52.092;5.232;2023-02-08T13:47:28;9.40;;;8.13;;
17598;SDS011;8918;52.092;5.232;2023-02-08T13:53:04;11.93;;;8.13;;
17598;SDS011;8918;52.092;5.232;2023-02-08T14:05:53;11.37;;;7.70;;
17598;SDS011;8918;52.092;5.232;2023-02-08T14:08:30;8.87;;;7.27;;
17598;SDS011;8918;52.092;5.232;2023-02-08T14:11:24;10.33;;;7.60;;
17598;SDS011;8918;52.092;5.232;2023-02-08T14:13:58;11.07;;;7.47;;
17598;SDS011;8918;52.092;5.232;2023-02-08T14:19:41;12.03;;;7.93;;
17598;SDS011;8918;52.092;5.232;2023-02-08T14:24:31;10.50;;;7.50;;
17598;SDS011;8918;52.092;5.232;2023-02-08T14:27:04;11.87;;;7.63;;
17598;SDS011;8918;52.092;5.232;2023-02-08T14:32:47;10.67;;;7.70;;
17598;SDS011;8918;52.092;5.232;2023-02-08T14:38:31;10.20;;;7.80;;
17598;SDS011;8918;52.092;5.232;2023-02-08T14:40:59;11.73;;;7.70;;
17598;SDS011;8918;52.092;5.232;2023-02-08T14:45:52;9.93;;;7.07;;
17598;SDS011;8918;52.092;5.232;2023-02-08T14:48:20;11.23;;;7.03;;
17598;SDS011;8918;52.092;5.232;2023-02-08T14:51:01;10.50;;;7.80;;
17598;SDS011;8918;52.092;5.232;2023-02-08T14:56:12;9.53;;;7.50;;
17598;SDS011;8918;52.092;5.232;2023-02-08T14:58:42;12.13;;;8.07;;
17598;SDS011;8918;52.092;5.232;2023-02-08T15:04:00;12.03;;;7.60;;
17598;SDS011;8918;52.092;5.232;2023-02-08T15:06:33;9.63;;;7.10;;
17598;SDS011;8918;52.092;5.232;2023-02-08T15:09:11;10.63;;;7.73;;
17598;SDS011;8918;52.092;5.232;2023-02-08T15:11:40;9.70;;;7.57;;
17598;SDS011;8918;52.092;5.232;2023-02-08T15:14:06;9.70;;;6.50;;
17598;SDS011;8918;52.092;5.232;2023-02-08T15:16:43;10.40;;;6.47;;
17598;SDS011;8918;52.092;5.232;2023-02-08T15:19:12;9.47;;;6.70;;
17598;SDS011;8918;52.092;5.232;2023-02-08T15:21:47;9.90;;;7.20;;
17598;SDS011;8918;52.092;5.232;2023-02-08T15:24:13;9.40;;;6.73;;
17598;SDS011;8918;52.092;5.232;2023-02-08T15:26:53;9.77;;;6.63;;
17598;SDS011;8918;52.092;5.232;2023-02-08T15:29:28;10.17;;;7.17;;
17598;SDS011;8918;52.092;5.232;2023-02-08T15:31:54;9.00;;;6.50;;
17598;SDS011;8918;52.092;5.232;2023-02-08T15:34:21;9.90;;;6.70;;
17598;SDS011;8918;52.092;5.232;2023-02-08T15:36:53;9.17;;;6.30;;
17598;SDS011;8918;52.092;5.232;2023-02-08T15:39:33;9.63;;;5.73;;
17598;SDS011;8918;52.092;5.232;2023-02-08T15:42:02;8.10;;;4.73;;
17598;SDS011;8918;52.092;5.232;2023-02-08T15:44:30;9.07;;;5.33;;
17598;SDS011;8918;52.092;5.232;2023-02-08T15:46:58;5.43;;;4.30;;
17598;SDS011;8918;52.092;5.232;2023-02-08T15:49:36;4.73;;;3.90;;
17598;SDS011;8918;52.092;5.232;2023-02-08T15:52:03;5.20;;;3.77;;
17598;SDS011;8918;52.092;5.232;2023-02-08T15:54:30;5.17;;;3.90;;
17598;SDS011;8918;52.092;5.232;2023-02-08T15:56:57;8.20;;;4.13;;
17598;SDS011;8918;52.092;5.232;2023-02-08T15:59:26;5.83;;;3.90;;
17598;SDS011;8918;52.092;5.232;2023-02-08T16:01:57;6.87;;;3.83;;
17598;SDS011;8918;52.092;5.232;2023-02-08T16:04:40;6.77;;;4.20;;
17598;SDS011;8918;52.092;5.232;2023-02-08T16:07:12;6.70;;;4.17;;
17598;SDS011;8918;52.092;5.232;2023-02-08T16:09:55;7.07;;;4.53;;
17598;SDS011;8918;52.092;5.232;2023-02-08T16:12:22;5.83;;;4.30;;
17598;SDS011;8918;52.092;5.232;2023-02-08T16:14:49;6.90;;;4.23;;
17598;SDS011;8918;52.092;5.232;2023-02-08T16:20:02;5.73;;;4.40;;
17598;SDS011;8918;52.092;5.232;2023-02-08T16:22:51;6.67;;;4.87;;
17598;SDS011;8918;52.092;5.232;2023-02-08T16:28:02;7.63;;;5.00;;
17598;SDS011;8918;52.092;5.232;2023-02-08T16:30:28;10.07;;;5.33;;
17598;SDS011;8918;52.092;5.232;2023-02-08T16:32:54;8.90;;;4.83;;
17598;SDS011;8918;52.092;5.232;2023-02-08T16:37:54;8.70;;;5.23;;
17598;SDS011;8918;52.092;5.232;2023-02-08T16:43:18;8.57;;;5.67;;
17598;SDS011;8918;52.092;5.232;2023-02-08T16:48:43;7.37;;;5.13;;
17598;SDS011;8918;52.092;5.232;2023-02-08T16:51:13;10.10;;;5.63;;
17598;SDS011;8918;52.092;5.232;2023-02-08T16:53:42;9.00;;;5.57;;
17598;SDS011;8918;52.092;5.232;2023-02-08T16:56:08;8.43;;;6.03;;
17598;SDS011;8918;52.092;5.232;2023-02-08T16:58:35;10.30;;;5.73;;
17598;SDS011;8918;52.092;5.232;2023-02-08T17:01:00;8.80;;;6.00;;
17598;SDS011;8918;52.092;5.232;2023-02-08T17:03:26;7.73;;;6.00;;
17598;SDS011;8918;52.092;5.232;2023-02-08T17:05:54;10.50;;;7.07;;
17598;SDS011;8918;52.092;5.232;2023-02-08T17:08:19;10.37;;;7.40;;
17598;SDS011;8918;52.092;5.232;2023-02-08T17:10:46;10.60;;;7.57;;
17598;SDS011;8918;52.092;5.232;2023-02-08T17:13:15;13.53;;;7.77;;
17598;SDS011;8918;52.092;5.232;2023-02-08T17:15:42;12.57;;;8.23;;
17598;SDS011;8918;52.092;5.232;2023-02-08T17:18:09;12.40;;;7.57;;